Time;durP1;ratioP1;P1;durP2;ratioP2;P2;SDS_P1;SDS_P2;PMS_P1;PMS_P2;Temp;Humidity;BMP_temperature;BMP_pressure;BME280_temperature;BME280_humidity;BME280_pressure;Samples;Min_cycle;Max_cycle;Signal;HPM_P1;HPM_P2
2023/05/28 00:01:46;;;;;;;7.97;3.90;;;;;;;21.02;55.30;100389.00;5031050;28;20311;-65
2023/05/28 00:04:12;;;;;;;6.93;3.50;;;;;;;21.00;54.94;100386.53;5030447;28;20198;-64
2023/05/28 00:06:37;;;;;;;9.60;3.47;;;;;;;21.00;55.04;100395.13;5027496;28;20978;-65
2023/05/28 00:09:03;;;;;;;10.20;3.70;;;;;;;21.00;55.22;100386.53;5013275;28;20207;-64
2023/05/28 00:11:28;;;;;;;9.53;3.50;;;;;;;21.00;55.25;100386.53;5009123;28;20235;-63
2023/05/28 00:13:53;;;;;;;9.83;3.60;;;;;;;21.00;55.01;100382.81;5019931;28;20184;-64
2023/05/28 00:16:20;;;;;;;7.93;3.80;;;;;;;21.00;55.00;100379.94;5029315;28;20171;-64
2023/05/28 00:18:46;;;;;;;6.73;3.77;;;;;;;21.00;55.11;100379.94;5019473;28;20244;-64
2023/05/28 00:21:11;;;;;;;6.10;3.27;;;;;;;20.99;55.29;100376.25;5010148;28;20644;-64
2023/05/28 00:23:37;;;;;;;8.50;4.17;;;;;;;20.99;55.00;100378.28;5017280;28;20447;-64
2023/05/28 00:26:02;;;;;;;6.20;3.80;;;;;;;20.99;54.91;100375.44;5009803;28;20621;-64
2023/05/28 00:28:28;;;;;;;9.43;3.73;;;;;;;20.98;55.33;100371.72;5026511;28;20259;-64
2023/05/28 00:30:54;;;;;;;7.10;3.53;;;;;;;20.98;54.83;100377.47;5030729;28;20184;-63
2023/05/28 00:33:19;;;;;;;8.40;4.03;;;;;;;20.99;55.23;100379.13;5027159;28;20184;-64
2023/05/28 00:35:45;;;;;;;12.47;3.93;;;;;;;20.97;55.47;100370.06;5031219;28;20169;-63
2023/05/28 00:38:11;;;;;;;8.43;3.50;;;;;;;20.97;55.25;100375.00;5013158;28;20168;-65
2023/05/28 00:40:36;;;;;;;8.53;3.67;;;;;;;20.98;55.25;100370.91;5029165;28;20415;-63
2023/05/28 00:43:01;;;;;;;8.63;3.90;;;;;;;20.97;55.33;100369.28;5019036;28;20197;-64
2023/05/28 00:45:27;;;;;;;6.13;3.00;;;;;;;20.97;55.06;100370.06;5012209;28;20230;-64
2023/05/28 00:47:52;;;;;;;8.03;4.07;;;;;;;20.97;54.99;100370.06;5027502;28;20831;-64
2023/05/28 00:50:20;;;;;;;6.90;3.93;;;;;;;20.97;55.21;100370.06;5010260;28;20615;-65
2023/05/28 00:52:46;;;;;;;7.67;3.40;;;;;;;20.96;55.14;100371.31;5007571;28;20668;-65
2023/05/28 00:55:15;;;;;;;7.37;4.20;;;;;;;20.96;55.32;100379.06;5023932;28;20426;-64
2023/05/28 00:57:41;;;;;;;6.63;3.27;;;;;;;20.96;54.99;100367.59;5016189;28;20431;-64
2023/05/28 01:00:37;;;;;;;7.60;3.93;;;;;;;20.94;55.43;100376.63;5029692;28;20474;-64
2023/05/28 01:03:04;;;;;;;6.40;3.60;;;;;;;20.95;55.43;100377.44;5030203;28;20227;-64
2023/05/28 01:05:34;;;;;;;6.50;3.53;;;;;;;20.94;55.47;100379.50;5029668;28;20430;-64
2023/05/28 01:08:02;;;;;;;9.87;4.20;;;;;;;20.95;55.34;100374.56;5021859;28;20475;-64
2023/05/28 01:10:28;;;;;;;7.73;3.50;;;;;;;20.94;55.53;100378.66;5009585;28;20472;-64
2023/05/28 01:12:54;;;;;;;6.83;3.70;;;;;;;20.94;55.13;100372.91;5011733;28;20405;-64
2023/05/28 01:15:19;;;;;;;5.93;3.10;;;;;;;20.93;55.20;100369.22;5016945;28;20514;-64
2023/05/28 01:17:45;;;;;;;9.70;3.80;;;;;;;20.93;55.18;100360.59;4993034;28;20177;-64
2023/05/28 01:20:12;;;;;;;7.50;3.63;;;;;;;20.93;55.21;100354.84;4992864;28;20184;-64
2023/05/28 01:22:38;;;;;;;6.43;3.50;;;;;;;20.92;55.38;100356.09;5010899;28;21037;-63
2023/05/28 01:25:09;;;;;;;7.77;3.73;;;;;;;20.92;55.21;100358.16;5017373;28;20439;-63
2023/05/28 01:27:40;;;;;;;7.23;3.57;;;;;;;20.91;55.13;100360.19;5028492;28;20193;-64
2023/05/28 01:30:09;;;;;;;7.67;3.93;;;;;;;20.91;55.17;100360.19;5009391;28;20400;-64
2023/05/28 01:32:35;;;;;;;8.67;3.87;;;;;;;20.92;55.44;100358.97;5009061;28;20468;-63
2023/05/28 01:35:01;;;;;;;7.93;3.70;;;;;;;20.91;55.55;100357.31;5021613;28;20558;-64
2023/05/28 01:37:26;;;;;;;7.77;3.20;;;;;;;20.90;55.40;100347.06;5010305;28;20428;-64
2023/05/28 01:39:52;;;;;;;7.13;3.83;;;;;;;20.90;55.18;100344.19;5009674;28;20169;-64
2023/05/28 01:42:17;;;;;;;6.57;4.13;;;;;;;20.90;55.20;100347.06;5013581;28;20191;-64
2023/05/28 01:44:43;;;;;;;8.40;4.20;;;;;;;20.90;55.41;100351.97;5027567;28;20184;-64
2023/05/28 01:47:10;;;;;;;8.37;4.27;;;;;;;20.88;55.33;100349.44;5023808;28;20278;-64
2023/05/28 01:49:37;;;;;;;7.70;4.03;;;;;;;20.89;55.04;100351.16;5027906;28;20172;-64
2023/05/28 01:52:03;;;;;;;6.40;3.70;;;;;;;20.88;55.51;100342.91;5011083;28;21032;-64
2023/05/28 01:54:28;;;;;;;7.40;3.40;;;;;;;20.88;55.13;100352.31;5017795;28;20448;-63
2023/05/28 01:56:53;;;;;;;6.50;3.60;;;;;;;20.88;55.41;100348.66;5009183;28;20420;-63
2023/05/28 01:59:20;;;;;;;4.90;3.00;;;;;;;20.88;55.26;100348.66;5009918;28;20188;-64
2023/05/28 02:01:45;;;;;;;7.00;3.70;;;;;;;20.87;55.44;100342.06;5008883;28;20185;-64
2023/05/28 02:04:10;;;;;;;10.43;3.60;;;;;;;20.87;55.49;100341.25;5009175;28;20461;-64
2023/05/28 02:06:36;;;;;;;5.83;3.87;;;;;;;20.86;55.42;100351.91;5007401;28;20242;-64
2023/05/28 02:09:02;;;;;;;6.37;3.50;;;;;;;20.87;55.36;100349.88;5021504;28;20223;-64
2023/05/28 02:11:27;;;;;;;8.87;3.93;;;;;;;20.86;55.24;100354.78;5018822;28;20232;-64
2023/05/28 02:13:54;;;;;;;7.33;3.70;;;;;;;20.86;55.09;100363.38;5028335;28;20246;-64
2023/05/28 02:16:20;;;;;;;7.97;4.10;;;;;;;20.86;55.19;100353.94;5022691;28;20176;-64
2023/05/28 02:18:46;;;;;;;7.07;3.87;;;;;;;20.84;54.97;100354.34;5012092;28;20444;-64
2023/05/28 02:21:12;;;;;;;6.80;4.03;;;;;;;20.85;55.10;100346.56;5009562;28;20486;-63
2023/05/28 02:23:42;;;;;;;10.50;3.60;;;;;;;20.84;55.16;100348.63;5008560;28;20197;-64
2023/05/28 02:26:07;;;;;;;8.43;4.17;;;;;;;20.85;55.45;100349.41;5022241;28;20308;-64
2023/05/28 02:28:33;;;;;;;5.90;3.50;;;;;;;20.83;55.01;100352.69;5009830;28;20896;-64
2023/05/28 02:30:58;;;;;;;7.80;4.03;;;;;;;20.84;55.04;100350.66;5008410;28;20177;-64
2023/05/28 02:33:24;;;;;;;8.10;3.93;;;;;;;20.83;55.09;100346.13;5022671;28;20181;-64
2023/05/28 02:35:49;;;;;;;7.70;3.83;;;;;;;20.82;54.78;100345.31;5020123;28;20192;-64
2023/05/28 02:38:15;;;;;;;7.73;3.20;;;;;;;20.82;54.96;100339.56;5009609;28;20769;-63
2023/05/28 02:40:41;;;;;;;9.40;3.97;;;;;;;20.81;54.86;100339.94;5011627;28;21012;-64
2023/05/28 02:43:06;;;;;;;7.47;3.80;;;;;;;20.81;55.05;100343.66;5020548;28;20415;-64
2023/05/28 02:45:32;;;;;;;7.40;3.63;;;;;;;20.81;55.04;100343.66;5027394;28;20176;-63
2023/05/28 02:47:57;;;;;;;7.10;3.07;;;;;;;20.79;55.34;100348.97;5014296;28;20216;-63
2023/05/28 02:50:22;;;;;;;5.67;3.37;;;;;;;20.80;55.01;100350.63;5007156;28;20981;-64
2023/05/28 02:52:48;;;;;;;7.90;3.60;;;;;;;20.80;54.99;100352.66;5014604;28;20825;-64
2023/05/28 02:55:13;;;;;;;12.53;4.43;;;;;;;20.80;54.90;100344.03;5007650;28;20671;-64
2023/05/28 02:57:39;;;;;;;5.70;3.67;;;;;;;20.78;54.96;100355.91;5025446;28;20532;-64
2023/05/28 03:00:09;;;;;;;6.00;3.83;;;;;;;20.79;55.07;100353.88;5013715;28;20193;-65
2023/05/28 03:02:34;;;;;;;10.63;4.13;;;;;;;20.78;54.91;100353.03;5009247;28;20177;-64
2023/05/28 03:05:02;;;;;;;5.40;2.87;;;;;;;20.78;55.16;100349.38;5011101;28;20456;-64
2023/05/28 03:07:28;;;;;;;7.00;3.50;;;;;;;20.79;54.86;100356.75;5008059;28;20248;-64
2023/05/28 03:09:54;;;;;;;9.70;3.43;;;;;;;20.77;55.05;100357.13;5008686;28;21147;-63
2023/05/28 03:12:19;;;;;;;5.73;3.70;;;;;;;20.77;55.06;100362.88;5010383;28;20463;-64
2023/05/28 03:14:45;;;;;;;11.60;4.10;;;;;;;20.77;55.04;100360.00;5019934;28;20177;-64
2023/05/28 03:17:10;;;;;;;6.63;3.43;;;;;;;20.78;55.10;100363.72;5009759;28;20177;-64
2023/05/28 03:19:36;;;;;;;9.30;3.70;;;;;;;20.77;55.00;100364.94;5008572;28;20805;-63
2023/05/28 03:22:02;;;;;;;6.90;3.47;;;;;;;20.76;55.13;100358.38;5011958;28;20785;-63
2023/05/28 03:24:27;;;;;;;8.47;3.87;;;;;;;20.76;54.84;100369.84;4999573;28;20199;-64
2023/05/28 03:26:53;;;;;;;7.73;3.90;;;;;;;20.76;54.86;100358.38;5032341;28;20462;-64
2023/05/28 03:29:18;;;;;;;8.40;3.70;;;;;;;20.74;55.02;100357.94;5030835;28;20183;-64
2023/05/28 03:31:45;;;;;;;8.93;4.17;;;;;;;20.75;55.27;100359.59;5012775;28;20205;-64
2023/05/28 03:34:11;;;;;;;7.90;3.40;;;;;;;20.75;55.25;100358.75;5011726;28;20815;-64
2023/05/28 03:36:37;;;;;;;6.77;3.80;;;;;;;20.75;55.26;100359.59;5014767;28;20435;-64
2023/05/28 03:39:04;;;;;;;5.97;3.50;;;;;;;20.74;55.24;100360.81;5014340;28;20545;-64
2023/05/28 03:41:29;;;;;;;8.97;3.90;;;;;;;20.74;54.88;100357.94;5030474;28;20962;-63
2023/05/28 03:43:54;;;;;;;7.90;3.73;;;;;;;20.73;55.09;100362.00;5012503;28;20435;-64
2023/05/28 03:46:20;;;;;;;7.17;4.17;;;;;;;20.74;54.92;100362.84;5027415;28;20196;-64
2023/05/28 03:48:45;;;;;;;9.60;4.07;;;;;;;20.73;55.28;100353.41;5019082;28;20193;-64
2023/05/28 03:51:11;;;;;;;8.27;3.27;;;;;;;20.73;55.25;100359.13;5010902;28;20235;-64
2023/05/28 03:53:36;;;;;;;6.07;3.40;;;;;;;20.73;54.88;100352.59;5012712;28;20824;-64
2023/05/28 03:56:02;;;;;;;6.87;3.57;;;;;;;20.72;54.99;100350.94;5012488;28;20248;-64
2023/05/28 03:58:28;;;;;;;9.43;4.10;;;;;;;20.72;55.20;100360.38;5024906;28;20189;-64
2023/05/28 04:00:53;;;;;;;7.43;4.20;;;;;;;20.73;54.82;100369.81;5030150;28;20217;-64
2023/05/28 04:03:18;;;;;;;6.37;3.60;;;;;;;20.72;55.20;100368.97;5024094;28;20181;-64
2023/05/28 04:05:44;;;;;;;6.80;3.80;;;;;;;20.72;55.10;100363.22;5010171;28;20165;-64
2023/05/28 04:08:09;;;;;;;6.47;3.50;;;;;;;20.71;54.77;100364.47;5027428;28;20204;-64
2023/05/28 04:10:35;;;;;;;7.43;4.27;;;;;;;20.71;55.12;100372.22;5033592;28;20682;-64
2023/05/28 04:13:00;;;;;;;8.13;4.10;;;;;;;20.71;54.75;100367.31;4994914;28;20184;-64
2023/05/28 04:15:26;;;;;;;8.93;4.00;;;;;;;20.71;54.81;100373.06;5032049;28;20826;-64
2023/05/28 04:17:51;;;;;;;8.43;3.77;;;;;;;20.71;54.93;100366.50;5030151;28;20165;-64
2023/05/28 04:20:17;;;;;;;9.00;3.70;;;;;;;20.71;55.27;100370.19;4997850;28;20192;-63
2023/05/28 04:22:42;;;;;;;8.13;3.90;;;;;;;20.70;55.23;100380.03;5031675;28;20168;-64
2023/05/28 04:25:08;;;;;;;8.67;3.77;;;;;;;20.70;54.92;100377.16;4996600;28;20180;-64
2023/05/28 04:27:34;;;;;;;8.00;3.87;;;;;;;20.70;54.87;100371.44;5014097;28;20205;-64
2023/05/28 04:30:00;;;;;;;6.00;3.70;;;;;;;20.71;55.28;100372.22;5007248;28;20172;-64
2023/05/28 04:32:27;;;;;;;10.00;4.30;;;;;;;20.72;54.81;100379.66;5030618;28;20408;-64
2023/05/28 04:34:53;;;;;;;10.07;3.67;;;;;;;20.71;55.01;100375.09;5029493;28;21230;-64
2023/05/28 04:37:19;;;;;;;10.47;4.10;;;;;;;20.72;54.97;100389.06;5015784;28;20424;-64
2023/05/28 04:39:44;;;;;;;6.30;4.10;;;;;;;20.72;55.20;100386.19;5034114;28;20207;-63
2023/05/28 04:42:13;;;;;;;8.63;3.80;;;;;;;20.73;54.80;100387.03;5023271;28;20958;-64
2023/05/28 04:44:40;;;;;;;8.30;3.50;;;;;;;20.73;54.63;100389.91;5016552;28;20600;-64
2023/05/28 04:47:05;;;;;;;10.90;4.20;;;;;;;20.73;54.83;100389.91;5003885;28;20815;-64
2023/05/28 04:49:31;;;;;;;5.10;3.23;;;;;;;20.74;54.82;100386.63;4999684;28;20416;-64
2023/05/28 04:51:57;;;;;;;10.50;3.87;;;;;;;20.74;54.64;100392.38;5012364;28;20195;-64
2023/05/28 04:54:22;;;;;;;8.80;4.10;;;;;;;20.74;54.83;100388.66;5030341;28;20176;-64
2023/05/28 04:56:48;;;;;;;8.93;3.73;;;;;;;20.74;54.82;100382.94;5020473;28;20177;-64
2023/05/28 04:59:13;;;;;;;7.10;3.70;;;;;;;20.74;54.97;100391.53;4993407;28;20177;-64
2023/05/28 05:01:39;;;;;;;7.63;3.90;;;;;;;20.73;55.24;100393.56;4997683;28;20188;-63
2023/05/28 05:04:06;;;;;;;7.10;3.47;;;;;;;20.73;54.72;100392.75;4991937;28;20188;-64
2023/05/28 05:06:32;;;;;;;10.57;3.57;;;;;;;20.72;54.85;100391.13;5020813;28;20204;-64
2023/05/28 05:08:58;;;;;;;7.00;3.33;;;;;;;20.71;55.27;100393.16;5029828;28;20581;-64
2023/05/28 05:11:24;;;;;;;7.73;3.97;;;;;;;20.71;55.13;100387.41;5026207;28;20478;-64
2023/05/28 05:13:50;;;;;;;8.20;3.80;;;;;;;20.71;55.04;100393.16;5023230;28;20260;-63
2023/05/28 05:16:16;;;;;;;8.83;3.90;;;;;;;20.71;54.98;100400.91;5009314;28;20173;-64
2023/05/28 05:18:42;;;;;;;8.13;3.70;;;;;;;20.71;54.99;100395.19;5010587;28;20182;-64
2023/05/28 05:21:09;;;;;;;6.20;3.73;;;;;;;20.71;54.82;100392.31;5023103;28;20458;-64
2023/05/28 05:23:35;;;;;;;9.63;3.40;;;;;;;20.71;55.09;100396.03;5028928;28;20177;-63
2023/05/28 05:26:01;;;;;;;6.67;4.30;;;;;;;20.70;55.08;100397.25;5020864;28;20492;-64
2023/05/28 05:28:26;;;;;;;6.87;4.00;;;;;;;20.71;54.86;100395.19;5008124;28;20841;-64
2023/05/28 05:30:51;;;;;;;7.67;3.63;;;;;;;20.72;54.65;100396.84;5012813;28;20189;-65
2023/05/28 05:33:17;;;;;;;7.57;3.43;;;;;;;20.73;54.98;100392.75;5027589;28;20165;-64
2023/05/28 05:35:42;;;;;;;8.93;3.87;;;;;;;20.74;54.82;100394.41;5028684;28;20176;-64
2023/05/28 05:38:08;;;;;;;6.10;3.80;;;;;;;20.74;55.04;100395.25;5029705;28;20172;-63
2023/05/28 05:40:33;;;;;;;7.90;3.90;;;;;;;20.74;54.97;100394.41;5022552;28;20185;-63
2023/05/28 05:42:59;;;;;;;10.13;3.73;;;;;;;20.72;54.96;100403.41;5020691;28;20180;-64
2023/05/28 05:45:24;;;;;;;8.97;4.70;;;;;;;20.73;54.89;100399.31;5026633;28;20211;-64
2023/05/28 05:47:50;;;;;;;8.33;4.00;;;;;;;20.73;54.96;100399.31;5009923;28;20197;-65
2023/05/28 05:50:15;;;;;;;6.50;4.40;;;;;;;20.73;55.28;100399.31;5009247;28;20181;-64
2023/05/28 05:52:41;;;;;;;7.77;4.27;;;;;;;20.71;55.70;100401.75;5009776;28;20596;-64
2023/05/28 05:55:09;;;;;;;7.70;3.70;;;;;;;20.71;55.10;100407.50;5016272;28;20181;-65
2023/05/28 05:57:36;;;;;;;5.63;3.57;;;;;;;20.69;54.94;100407.06;5029435;28;20291;-64
2023/05/28 06:00:05;;;;;;;7.63;4.07;;;;;;;20.70;55.70;100402.97;5028332;28;20412;-64
2023/05/28 06:02:30;;;;;;;8.40;4.37;;;;;;;20.70;55.48;100408.72;5028302;28;20422;-64
2023/05/28 06:04:56;;;;;;;6.97;3.70;;;;;;;20.70;55.46;100410.75;5024174;28;20442;-64
2023/05/28 06:07:21;;;;;;;9.33;4.20;;;;;;;20.71;55.22;100412.41;5029172;28;20188;-64
2023/05/28 06:09:48;;;;;;;7.00;3.43;;;;;;;20.72;55.99;100412.00;5024489;28;20200;-64
2023/05/28 06:12:13;;;;;;;6.87;3.90;;;;;;;20.73;55.13;100409.97;5006584;28;20939;-65
2023/05/28 06:14:39;;;;;;;11.07;4.10;;;;;;;20.73;55.20;100410.78;5020399;28;20430;-64
2023/05/28 06:17:05;;;;;;;8.90;4.73;;;;;;;20.72;55.40;100403.41;5021491;28;20184;-64
2023/05/28 06:19:30;;;;;;;9.80;4.60;;;;;;;20.72;55.71;100414.88;5038717;28;20184;-65
2023/05/28 06:21:56;;;;;;;7.97;4.57;;;;;;;20.71;55.99;100407.50;5042633;28;20473;-64
2023/05/28 06:24:21;;;;;;;7.63;4.53;;;;;;;20.70;55.37;100414.47;5020917;28;20188;-65
2023/05/28 06:26:47;;;;;;;9.53;4.37;;;;;;;20.70;55.42;100417.31;5021937;28;20219;-64
2023/05/28 06:29:12;;;;;;;7.43;4.43;;;;;;;20.70;55.29;100417.31;5026314;28;20172;-64
2023/05/28 06:31:40;;;;;;;8.50;4.03;;;;;;;20.71;55.24;100412.41;5020701;28;20637;-64
2023/05/28 06:34:05;;;;;;;7.83;4.60;;;;;;;20.70;55.41;100408.72;5008417;28;20173;-63
2023/05/28 06:36:30;;;;;;;8.33;4.43;;;;;;;20.70;55.03;100408.72;5028025;28;20426;-63
2023/05/28 06:38:56;;;;;;;9.67;4.27;;;;;;;20.70;55.21;100411.59;5025134;28;20187;-63
2023/05/28 06:41:21;;;;;;;9.27;4.00;;;;;;;20.69;55.24;100404.22;5008838;28;20185;-64
2023/05/28 06:43:47;;;;;;;10.83;3.90;;;;;;;20.70;55.21;100405.84;5025066;28;20185;-63
2023/05/28 06:46:13;;;;;;;7.10;3.80;;;;;;;20.71;55.15;100416.09;5021381;28;20643;-64
2023/05/28 06:48:38;;;;;;;7.93;3.73;;;;;;;20.70;55.45;100413.63;5015747;28;20211;-64
2023/05/28 06:51:04;;;;;;;9.90;4.20;;;;;;;20.70;55.00;100416.50;5023155;28;20191;-64
2023/05/28 06:53:30;;;;;;;7.60;3.80;;;;;;;20.71;55.11;100421.00;5027960;28;20164;-63
2023/05/28 06:55:55;;;;;;;8.10;3.80;;;;;;;20.71;55.27;100429.63;5030081;28;20815;-64
2023/05/28 06:58:21;;;;;;;8.80;4.53;;;;;;;20.70;55.53;100422.22;5015958;28;20203;-63
2023/05/28 07:00:46;;;;;;;6.90;3.80;;;;;;;20.71;55.52;100421.84;5012234;28;20168;-63
2023/05/28 07:03:11;;;;;;;6.70;4.07;;;;;;;20.71;55.41;100418.13;5016184;28;20180;-63
2023/05/28 07:05:37;;;;;;;8.30;3.90;;;;;;;20.70;55.32;100425.94;5011095;28;20172;-64
2023/05/28 07:08:03;;;;;;;6.40;3.90;;;;;;;20.70;55.44;100423.06;5009314;28;20215;-65
2023/05/28 07:10:28;;;;;;;10.60;4.70;;;;;;;20.70;55.00;100423.06;5013352;28;20475;-63
2023/05/28 07:12:54;;;;;;;7.50;3.60;;;;;;;20.70;55.22;100416.50;5015921;28;20180;-63
2023/05/28 07:15:21;;;;;;;7.80;4.17;;;;;;;20.69;55.16;100418.56;5022330;28;20723;-64
2023/05/28 07:17:46;;;;;;;7.57;3.50;;;;;;;20.70;55.64;100425.09;5012360;28;20180;-63
2023/05/28 07:20:12;;;;;;;6.47;3.90;;;;;;;20.71;55.15;100421.00;5023103;28;20431;-64
2023/05/28 07:22:37;;;;;;;7.43;4.00;;;;;;;20.70;55.45;100425.09;5014553;28;20184;-64
2023/05/28 07:25:03;;;;;;;9.63;4.97;;;;;;;20.70;55.40;100433.72;5010996;28;20172;-64
2023/05/28 07:27:29;;;;;;;9.57;4.47;;;;;;;20.70;55.19;100422.22;5012986;28;20201;-64
2023/05/28 07:29:54;;;;;;;6.90;3.90;;;;;;;20.70;55.11;100419.34;4993081;28;20427;-64
2023/05/28 07:32:20;;;;;;;11.07;4.00;;;;;;;20.71;55.34;100435.34;5012087;28;20197;-63
2023/05/28 07:34:45;;;;;;;9.40;4.40;;;;;;;20.71;55.03;100432.47;5028902;28;20180;-63
2023/05/28 07:37:11;;;;;;;7.07;4.00;;;;;;;20.71;55.12;100439.06;5030735;28;20175;-62
2023/05/28 07:39:36;;;;;;;10.33;4.30;;;;;;;20.70;55.16;100437.41;5020961;28;20177;-63
2023/05/28 07:42:02;;;;;;;7.37;4.60;;;;;;;20.71;54.93;100435.34;4997307;28;20242;-63
2023/05/28 07:44:27;;;;;;;8.57;4.33;;;;;;;20.70;55.40;100428.81;5025906;28;20184;-63
2023/05/28 07:46:53;;;;;;;8.07;4.20;;;;;;;20.71;55.31;100430.44;5030905;28;20664;-63
2023/05/28 07:49:19;;;;;;;12.23;4.57;;;;;;;20.71;55.32;100436.19;5017588;28;20535;-63
2023/05/28 07:51:45;;;;;;;11.03;4.40;;;;;;;20.71;55.36;100435.34;5012127;28;20161;-63
2023/05/28 07:54:11;;;;;;;8.63;3.90;;;;;;;20.70;55.48;100433.72;5016788;28;20802;-63
2023/05/28 07:56:36;;;;;;;7.13;4.50;;;;;;;20.70;55.38;100427.97;5031237;28;20874;-63
2023/05/28 07:59:02;;;;;;;10.33;3.90;;;;;;;20.71;55.20;100426.75;5031171;28;20404;-63
2023/05/28 08:01:27;;;;;;;9.83;4.23;;;;;;;20.71;55.25;100436.19;5026797;28;20187;-63
2023/05/28 08:03:54;;;;;;;7.20;4.10;;;;;;;20.71;55.29;100427.59;5030716;28;20215;-63
2023/05/28 08:06:20;;;;;;;8.67;4.00;;;;;;;20.71;55.33;100418.13;5026512;28;20267;-63
2023/05/28 08:08:45;;;;;;;8.93;4.80;;;;;;;20.71;54.99;100424.72;5030036;28;20442;-63
2023/05/28 08:11:13;;;;;;;6.80;4.07;;;;;;;20.72;55.23;100425.56;5029006;28;20489;-63
2023/05/28 08:13:40;;;;;;;9.67;3.90;;;;;;;20.71;55.43;100424.72;5028511;28;20215;-63
2023/05/28 08:16:06;;;;;;;7.17;3.90;;;;;;;20.72;55.15;100425.56;5028209;28;20998;-64
2023/05/28 08:18:31;;;;;;;8.50;4.17;;;;;;;20.72;55.44;100422.69;5018505;28;20440;-64
2023/05/28 08:20:57;;;;;;;6.13;3.97;;;;;;;20.72;55.29;100423.50;5008841;28;20184;-64
2023/05/28 08:23:22;;;;;;;6.50;3.60;;;;;;;20.72;55.30;100426.34;5010173;28;20185;-63
2023/05/28 08:25:48;;;;;;;7.63;4.20;;;;;;;20.72;55.58;100426.34;5011039;28;20188;-64
2023/05/28 08:28:16;;;;;;;7.73;4.03;;;;;;;20.72;55.65;100419.81;5029790;28;20197;-63
2023/05/28 08:30:42;;;;;;;10.30;4.70;;;;;;;20.72;55.59;100417.75;5028936;28;20188;-63
2023/05/28 08:33:07;;;;;;;8.27;4.20;;;;;;;20.71;55.59;100407.50;5027829;28;20439;-63
2023/05/28 08:35:32;;;;;;;8.00;3.97;;;;;;;20.72;55.64;100406.28;5021298;28;20181;-63
2023/05/28 08:37:58;;;;;;;8.00;4.10;;;;;;;20.71;55.49;100409.53;5009559;28;20168;-64
2023/05/28 08:40:23;;;;;;;6.93;3.60;;;;;;;20.72;55.38;100409.13;5009613;28;20259;-64
2023/05/28 08:42:49;;;;;;;9.40;4.13;;;;;;;20.71;55.75;100407.50;5028499;28;20180;-65
2023/05/28 08:45:15;;;;;;;9.30;4.40;;;;;;;20.73;55.46;100401.38;5026314;28;20179;-64
2023/05/28 08:47:40;;;;;;;12.20;4.50;;;;;;;20.72;55.41;100397.66;5023679;28;20250;-63
2023/05/28 08:50:06;;;;;;;6.90;4.20;;;;;;;20.72;55.39;100400.53;5024920;28;20534;-64
2023/05/28 08:52:33;;;;;;;8.10;3.77;;;;;;;20.74;55.42;100400.16;5021005;28;20187;-63
2023/05/28 08:54:59;;;;;;;10.80;4.80;;;;;;;20.74;54.82;100395.25;5017744;28;20435;-64
2023/05/28 08:57:25;;;;;;;9.60;4.40;;;;;;;20.75;54.65;100396.88;5008779;28;21126;-64
2023/05/28 08:59:51;;;;;;;11.70;4.40;;;;;;;20.75;54.90;100388.28;5026202;28;20430;-64
2023/05/28 09:02:16;;;;;;;12.03;4.93;;;;;;;20.75;54.57;100385.41;5017377;28;20435;-63
2023/05/28 09:04:46;;;;;;;8.83;4.40;;;;;;;20.76;54.16;100380.47;5014428;28;20196;-64
2023/05/28 09:07:12;;;;;;;8.10;4.37;;;;;;;20.76;54.29;100384.19;5007736;28;20215;-64
2023/05/28 09:09:37;;;;;;;9.33;3.90;;;;;;;20.76;54.74;100384.19;5024397;28;20474;-63
2023/05/28 09:12:05;;;;;;;9.33;4.30;;;;;;;20.76;54.55;100383.34;5011189;28;20915;-64
2023/05/28 09:14:31;;;;;;;9.60;4.90;;;;;;;20.75;54.38;100376.81;5021605;28;20188;-63
2023/05/28 09:16:56;;;;;;;27.40;4.47;;;;;;;20.76;54.24;100384.19;5011263;28;20419;-63
2023/05/28 09:19:23;;;;;;;7.03;3.63;;;;;;;20.78;53.65;100373.13;5012570;28;20185;-63
2023/05/28 09:21:57;;;;;;;10.93;4.87;;;;;;;20.77;54.40;100380.09;5009047;28;20179;-64
2023/05/28 09:24:25;;;;;;;12.90;4.80;;;;;;;20.78;53.98;100373.13;5015579;28;20841;-64
2023/05/28 09:26:53;;;;;;;8.07;4.77;;;;;;;20.78;54.28;100369.44;5014751;28;20468;-63
2023/05/28 09:29:18;;;;;;;8.93;4.70;;;;;;;20.78;53.97;100373.13;5007064;28;20423;-64
2023/05/28 09:31:44;;;;;;;11.90;4.47;;;;;;;20.79;53.95;100371.94;4992424;28;20773;-64
2023/05/28 09:34:10;;;;;;;10.83;4.23;;;;;;;20.80;54.09;100367.84;5019410;28;20180;-64
2023/05/28 09:36:36;;;;;;;7.50;4.27;;;;;;;20.80;53.91;100367.00;5023808;28;20180;-64
2023/05/28 09:39:07;;;;;;;7.03;3.77;;;;;;;20.80;53.67;100358.38;5008807;28;20268;-64
2023/05/28 09:41:33;;;;;;;9.60;4.07;;;;;;;20.79;53.41;100357.59;5026206;28;20232;-63
2023/05/28 09:44:00;;;;;;;9.40;4.23;;;;;;;20.79;53.44;100351.84;5023623;28;20459;-64
2023/05/28 09:46:32;;;;;;;8.73;4.93;;;;;;;20.81;53.94;100354.28;5016800;28;20887;-64
2023/05/28 09:48:59;;;;;;;8.00;4.47;;;;;;;20.81;53.61;100352.25;5007961;28;20439;-63
2023/05/28 09:51:26;;;;;;;8.33;4.50;;;;;;;20.83;53.64;100354.75;5020803;28;20526;-64
2023/05/28 09:53:56;;;;;;;9.40;4.43;;;;;;;20.82;53.46;100356.78;5019776;28;20458;-63
2023/05/28 09:56:22;;;;;;;6.10;3.40;;;;;;;20.83;53.57;100351.88;5022553;28;20907;-63
2023/05/28 09:58:50;;;;;;;7.40;4.17;;;;;;;20.84;53.66;100357.22;4994323;28;20443;-64
2023/05/28 10:01:16;;;;;;;8.87;4.50;;;;;;;20.83;53.89;100349.81;5008388;28;20424;-63
2023/05/28 10:03:47;;;;;;;7.73;4.30;;;;;;;20.84;53.81;100344.91;5010760;28;20955;-63
2023/05/28 10:06:20;;;;;;;11.80;5.20;;;;;;;20.85;53.72;100337.94;5022227;28;20647;-62
2023/05/28 10:08:47;;;;;;;11.10;5.00;;;;;;;20.85;53.52;100344.53;5010306;28;20451;-64
2023/05/28 10:11:15;;;;;;;10.00;4.50;;;;;;;20.86;53.56;100345.31;5036917;28;20528;-62
2023/05/28 10:13:40;;;;;;;7.47;4.20;;;;;;;20.86;53.93;100340.44;5011923;28;20523;-63
2023/05/28 10:16:06;;;;;;;7.80;4.47;;;;;;;20.86;53.92;100342.47;5011796;28;20935;-63
2023/05/28 10:18:31;;;;;;;9.43;3.80;;;;;;;20.87;53.39;100349.88;5012404;28;20328;-64
2023/05/28 10:20:58;;;;;;;12.97;4.77;;;;;;;20.87;53.60;100347.00;5025049;28;20555;-63
2023/05/28 10:23:23;;;;;;;7.60;4.67;;;;;;;20.87;53.87;100344.94;5010870;28;20271;-63
2023/05/28 10:25:48;;;;;;;9.40;4.23;;;;;;;20.89;53.31;100347.41;5017658;28;20439;-64
2023/05/28 10:28:14;;;;;;;8.40;4.23;;;;;;;20.89;53.44;100347.41;5008794;28;20235;-63
2023/05/28 10:30:40;;;;;;;8.37;4.67;;;;;;;20.88;53.43;100343.72;5008768;28;20276;-62
2023/05/28 10:33:07;;;;;;;6.50;3.30;;;;;;;20.90;53.61;100349.09;5010174;28;20489;-63
2023/05/28 10:35:34;;;;;;;8.50;4.23;;;;;;;20.89;53.96;100333.94;5010617;28;20517;-63
2023/05/28 10:38:05;;;;;;;8.83;5.07;;;;;;;20.91;53.76;100342.13;5010839;28;20498;-63
2023/05/28 10:40:33;;;;;;;9.63;4.73;;;;;;;20.91;54.04;100345.84;5012410;28;21204;-64
2023/05/28 10:42:59;;;;;;;8.50;3.97;;;;;;;20.93;53.54;100334.78;5018263;28;20457;-63
2023/05/28 10:45:37;;;;;;;9.53;4.43;;;;;;;20.92;53.72;100338.06;5019110;28;21148;-63
2023/05/28 10:48:03;;;;;;;8.97;4.63;;;;;;;20.93;54.31;100331.91;5025848;28;20458;-64
2023/05/28 10:50:28;;;;;;;7.37;4.33;;;;;;;20.95;53.91;100334.38;5016367;28;20546;-64
2023/05/28 10:53:06;;;;;;;6.70;3.73;;;;;;;20.96;54.04;100338.88;5021510;28;20176;-64
2023/05/28 10:55:50;;;;;;;8.97;4.60;;;;;;;20.95;54.11;100334.38;5026488;28;20715;-64
2023/05/28 10:58:35;;;;;;;8.63;4.03;;;;;;;20.95;54.48;100332.34;5003283;28;20474;-63
2023/05/28 11:01:20;;;;;;;10.90;5.00;;;;;;;20.95;53.96;100317.16;5016653;28;20580;-63
2023/05/28 11:03:52;;;;;;;7.77;3.93;;;;;;;20.96;54.02;100322.50;5022209;28;20488;-63
2023/05/28 11:06:17;;;;;;;9.37;3.90;;;;;;;20.96;54.59;100315.94;5016117;28;20930;-63
2023/05/28 11:08:49;;;;;;;8.00;4.63;;;;;;;20.97;54.73;100320.47;4997896;28;20467;-63
2023/05/28 11:11:16;;;;;;;8.90;5.03;;;;;;;20.97;54.84;100309.00;5014778;28;20232;-63
2023/05/28 11:13:45;;;;;;;8.90;4.20;;;;;;;20.98;54.57;100311.44;5013546;28;20432;-63
2023/05/28 11:16:12;;;;;;;10.33;4.50;;;;;;;20.98;54.47;100305.69;5009275;28;20459;-63
2023/05/28 11:18:37;;;;;;;8.00;3.80;;;;;;;21.00;54.81;100299.56;5021059;28;21303;-63
2023/05/28 11:21:08;;;;;;;11.43;4.40;;;;;;;21.00;54.13;100293.81;5009972;28;20454;-63